createdAt,value
2023-05-21T00:06:39.715Z,17.18
2023-05-21T00:17:06.015Z,17.16
2023-05-21T00:27:31.941Z,17.06
2023-05-21T00:37:57.622Z,17.05
2023-05-21T00:48:24.968Z,17.11
2023-05-21T00:58:52.028Z,17.06
2023-05-21T01:09:18.720Z,16.84
2023-05-21T01:19:45.899Z,16.78
2023-05-21T01:30:14.495Z,16.77
2023-05-21T01:40:47.075Z,16.70
2023-05-21T01:51:13.838Z,16.62
2023-05-21T02:01:39.667Z,16.67
2023-05-21T02:12:06.048Z,16.64
2023-05-21T02:22:31.714Z,16.79
2023-05-21T02:32:59.272Z,16.87
2023-05-21T02:43:25.564Z,16.79
2023-05-21T02:53:51.299Z,16.72
2023-05-21T03:04:18.559Z,16.73
2023-05-21T03:14:46.492Z,16.71
2023-05-21T03:25:14.116Z,16.69
2023-05-21T03:35:40.518Z,16.63
2023-05-21T03:46:06.297Z,16.68
2023-05-21T03:56:32.147Z,16.74
2023-05-21T04:07:00.276Z,16.71
2023-05-21T04:17:27.095Z,16.73
2023-05-21T04:27:52.775Z,16.62
2023-05-21T04:38:19.966Z,16.85
2023-05-21T04:48:45.414Z,17.40
2023-05-21T04:59:12.131Z,17.89
2023-05-21T05:09:37.905Z,18.35
2023-05-21T05:20:05.286Z,19.06
2023-05-21T05:30:31.015Z,19.65
2023-05-21T05:40:56.630Z,20.10
2023-05-21T05:51:22.742Z,20.60
2023-05-21T06:01:49.000Z,20.91
2023-05-21T06:12:16.282Z,21.11
2023-05-21T06:22:42.009Z,21.43
2023-05-21T06:33:08.210Z,21.53
2023-05-21T06:43:33.730Z,21.57
2023-05-21T06:53:59.612Z,21.83
2023-05-21T07:04:25.809Z,22.10
2023-05-21T07:14:51.554Z,22.41
2023-05-21T07:25:18.082Z,22.73
2023-05-21T07:35:43.580Z,23.02
2023-05-21T07:46:09.539Z,22.98
2023-05-21T07:56:35.145Z,22.84
2023-05-21T08:07:00.944Z,22.80
2023-05-21T08:17:28.876Z,22.94
2023-05-21T08:27:54.588Z,23.19
2023-05-21T08:38:20.412Z,23.33
2023-05-21T08:48:45.678Z,23.35
2023-05-21T08:59:11.720Z,23.44
2023-05-21T09:09:43.117Z,23.57
2023-05-21T09:20:16.377Z,23.62
2023-05-21T09:30:47.388Z,23.66
2023-05-21T09:41:13.764Z,23.76
2023-05-21T09:51:39.728Z,23.78
2023-05-21T10:02:16.346Z,23.72
2023-05-21T10:12:46.072Z,23.77
2023-05-21T10:23:14.206Z,23.79
2023-05-21T10:33:42.293Z,23.76
2023-05-21T10:44:17.491Z,23.74
2023-05-21T10:54:58.546Z,23.73
2023-05-21T11:16:14.915Z,23.85
2023-05-21T11:27:06.977Z,23.88
2023-05-21T11:37:40.713Z,23.80
2023-05-21T11:48:07.690Z,23.81
2023-05-21T11:58:34.728Z,23.91
2023-05-21T12:09:00.831Z,23.97
2023-05-21T12:19:26.777Z,24.02
2023-05-21T12:29:54.255Z,24.07
2023-05-21T12:40:21.050Z,24.13
2023-05-21T12:50:47.055Z,24.14
2023-05-21T13:01:14.635Z,24.25
2023-05-21T13:11:40.590Z,24.26
2023-05-21T13:22:05.623Z,24.25
2023-05-21T13:32:31.426Z,24.23
2023-05-21T13:42:55.727Z,24.21
2023-05-21T13:53:21.420Z,24.19
2023-05-21T14:03:47.333Z,24.22
2023-05-21T14:14:19.159Z,24.19
2023-05-21T14:24:45.017Z,24.07
2023-05-21T14:45:55.083Z,23.93
2023-05-21T14:56:23.841Z,23.91
2023-05-21T15:06:49.750Z,23.91
2023-05-21T15:17:14.104Z,23.84
2023-05-21T15:27:39.666Z,23.78
2023-05-21T15:38:05.751Z,23.63
2023-05-21T15:48:31.652Z,23.52
2023-05-21T15:59:00.066Z,23.41
2023-05-21T16:09:26.017Z,23.34
2023-05-21T16:19:51.880Z,23.26
2023-05-21T16:30:18.210Z,23.16
2023-05-21T16:51:30.268Z,23.01
2023-05-21T17:01:56.505Z,22.86
2023-05-21T17:12:22.652Z,22.70
2023-05-21T17:22:48.758Z,22.56
2023-05-21T17:33:15.002Z,22.46
2023-05-21T17:43:41.433Z,22.36
2023-05-21T17:54:08.247Z,22.19
2023-05-21T18:04:34.136Z,22.05
2023-05-21T18:15:00.005Z,21.91
2023-05-21T18:25:24.805Z,21.75
2023-05-21T18:35:51.582Z,21.64
2023-05-21T18:46:17.464Z,21.52
2023-05-21T18:56:43.476Z,21.32
2023-05-21T19:07:09.286Z,21.25
2023-05-21T19:17:36.525Z,20.99
2023-05-21T19:28:02.735Z,20.83
2023-05-21T19:38:29.687Z,20.71
2023-05-21T19:48:55.600Z,20.49
2023-05-21T19:59:21.500Z,20.26
2023-05-21T20:09:47.622Z,20.02
2023-05-21T20:20:14.550Z,19.89
2023-05-21T20:30:57.619Z,19.82
2023-05-21T20:41:25.972Z,19.64
2023-05-21T20:51:52.177Z,19.35
2023-05-21T21:02:20.259Z,19.18
2023-05-21T21:12:46.079Z,19.05
2023-05-21T21:23:11.905Z,18.86
2023-05-21T21:33:37.497Z,18.73
2023-05-21T21:44:03.599Z,18.56
2023-05-21T21:54:29.721Z,18.41
2023-05-21T22:04:56.147Z,18.35
2023-05-21T22:15:25.131Z,18.13
2023-05-21T22:25:50.848Z,17.88
2023-05-21T22:36:17.023Z,17.77
2023-05-21T22:46:44.049Z,17.65
2023-05-21T22:57:10.020Z,17.73
2023-05-21T23:07:35.701Z,17.83
2023-05-21T23:18:04.060Z,17.57
2023-05-21T23:28:29.866Z,17.12
2023-05-21T23:38:56.196Z,17.13
2023-05-21T23:49:22.123Z,17.05
2023-05-21T23:59:48.136Z,16.70
